createdAt,value
2023-03-29T00:02:19.754Z,15.85
2023-03-29T00:04:47.013Z,17.35
2023-03-29T00:07:14.504Z,19.90
2023-03-29T00:09:42.539Z,22.25
2023-03-29T00:12:11.180Z,19.27
2023-03-29T00:14:37.966Z,20.27
2023-03-29T00:17:05.279Z,18.17
2023-03-29T00:19:35.770Z,21.23
2023-03-29T00:22:06.294Z,18.05
2023-03-29T00:24:33.176Z,22.55
2023-03-29T00:27:00.099Z,22.83
2023-03-29T00:29:26.843Z,18.75
2023-03-29T00:31:57.460Z,20.17
2023-03-29T00:36:52.983Z,18.65
2023-03-29T00:39:21.024Z,20.00
2023-03-29T00:41:49.762Z,22.15
2023-03-29T00:44:53.950Z,21.35
2023-03-29T00:47:26.617Z,23.60
2023-03-29T00:49:55.207Z,21.98
2023-03-29T00:52:24.219Z,18.58
2023-03-29T00:54:54.881Z,20.88
2023-03-29T00:59:52.047Z,20.40
2023-03-29T01:02:22.793Z,20.98
2023-03-29T01:05:05.617Z,22.92
2023-03-29T01:07:42.853Z,18.55
2023-03-29T01:10:19.172Z,21.08
2023-03-29T01:12:53.523Z,21.92
2023-03-29T01:15:28.605Z,21.13
2023-03-29T01:17:58.438Z,24.95
2023-03-29T01:20:55.523Z,24.33
2023-03-29T01:23:46.650Z,22.85
2023-03-29T01:26:22.947Z,21.45
2023-03-29T01:29:22.543Z,22.63
2023-03-29T01:32:02.970Z,23.60
2023-03-29T01:35:10.479Z,21.55
2023-03-29T01:37:43.652Z,19.10
2023-03-29T01:40:11.059Z,22.13
2023-03-29T01:43:11.431Z,20.17
2023-03-29T01:46:00.007Z,19.60
2023-03-29T01:48:38.918Z,19.77
2023-03-29T01:51:09.166Z,24.05
2023-03-29T01:53:42.197Z,20.42
2023-03-29T01:56:13.749Z,23.63
2023-03-29T01:58:45.143Z,24.60
2023-03-29T02:01:14.083Z,19.23
2023-03-29T02:03:47.321Z,20.55
2023-03-29T02:06:18.824Z,22.92
2023-03-29T02:08:46.724Z,27.45
2023-03-29T02:11:14.963Z,25.98
2023-03-29T02:13:45.306Z,28.17
2023-03-29T02:16:14.297Z,23.73
2023-03-29T02:18:47.899Z,27.75
2023-03-29T02:21:36.434Z,27.23
2023-03-29T02:24:08.730Z,25.90
2023-03-29T02:26:36.168Z,23.10
2023-03-29T02:29:03.130Z,26.13
2023-03-29T02:31:40.356Z,25.20
2023-03-29T02:34:13.928Z,27.27
2023-03-29T02:36:46.345Z,23.27
2023-03-29T02:39:16.586Z,31.35
2023-03-29T02:41:48.564Z,23.10
2023-03-29T02:44:24.456Z,31.10
2023-03-29T02:46:56.299Z,28.90
2023-03-29T02:49:24.244Z,33.40
2023-03-29T02:51:54.321Z,28.83
2023-03-29T02:54:26.204Z,30.92
2023-03-29T02:57:01.806Z,30.30
2023-03-29T02:59:30.177Z,29.77
2023-03-29T03:01:56.978Z,31.15
2023-03-29T03:04:24.111Z,32.20
2023-03-29T03:06:50.965Z,28.05
2023-03-29T03:09:18.412Z,30.35
2023-03-29T03:11:45.139Z,29.08
2023-03-29T03:14:12.514Z,32.00
2023-03-29T03:16:41.086Z,30.08
2023-03-29T03:19:08.100Z,28.85
2023-03-29T03:21:37.670Z,29.45
2023-03-29T03:24:07.567Z,28.40
2023-03-29T03:26:35.893Z,31.60
2023-03-29T03:29:05.238Z,28.40
2023-03-29T03:31:33.815Z,27.77
2023-03-29T03:34:00.897Z,27.33
2023-03-29T03:36:31.665Z,25.65
2023-03-29T03:41:26.284Z,27.15
2023-03-29T03:43:55.969Z,29.70
2023-03-29T03:46:22.865Z,28.20
2023-03-29T03:48:52.974Z,30.25
2023-03-29T03:51:19.993Z,31.25
2023-03-29T03:53:47.018Z,25.67
2023-03-29T03:56:14.181Z,26.65
2023-03-29T03:58:41.615Z,33.53
2023-03-29T04:01:08.946Z,29.98
2023-03-29T04:03:37.655Z,31.88
2023-03-29T04:06:04.828Z,27.42
2023-03-29T04:08:32.063Z,29.63
2023-03-29T04:10:59.825Z,30.20
2023-03-29T04:13:27.562Z,30.70
2023-03-29T04:15:58.850Z,29.85
2023-03-29T04:18:28.280Z,31.77
2023-03-29T04:20:56.610Z,31.90
2023-03-29T04:23:25.349Z,25.92
2023-03-29T04:25:56.221Z,30.52
2023-03-29T04:28:23.118Z,27.00
2023-03-29T04:30:50.505Z,30.08
2023-03-29T04:33:18.670Z,29.00
2023-03-29T04:35:48.270Z,27.42
2023-03-29T04:38:16.936Z,27.58
2023-03-29T04:40:46.161Z,28.77
2023-03-29T04:43:19.005Z,28.33
2023-03-29T04:45:45.928Z,33.25
2023-03-29T04:48:12.784Z,26.48
2023-03-29T04:50:41.492Z,27.02
2023-03-29T04:53:09.531Z,28.27
2023-03-29T04:55:36.589Z,27.20
2023-03-29T04:58:04.911Z,29.42
2023-03-29T05:00:31.871Z,28.38
2023-03-29T05:02:58.781Z,31.42
2023-03-29T05:05:25.706Z,30.17
2023-03-29T05:07:53.291Z,33.47
2023-03-29T05:10:19.968Z,31.98
2023-03-29T05:12:46.975Z,30.50
2023-03-29T05:15:15.436Z,33.72
2023-03-29T05:17:42.270Z,29.63
2023-03-29T05:20:13.206Z,31.48
2023-03-29T05:22:40.419Z,28.30
2023-03-29T05:25:08.278Z,32.55
2023-03-29T05:27:35.861Z,30.63
2023-03-29T05:30:02.633Z,33.72
2023-03-29T05:32:29.970Z,30.73
2023-03-29T05:34:58.383Z,27.05
2023-03-29T05:37:26.601Z,30.60
2023-03-29T05:39:53.565Z,31.38
2023-03-29T05:42:32.960Z,31.52
2023-03-29T05:44:59.839Z,29.92
2023-03-29T05:47:26.557Z,28.60
2023-03-29T05:49:53.726Z,29.50
2023-03-29T05:52:21.005Z,28.60
2023-03-29T05:54:47.869Z,30.83
2023-03-29T05:57:15.145Z,29.38
2023-03-29T05:59:42.412Z,25.40
2023-03-29T06:02:11.081Z,32.60
2023-03-29T06:04:38.576Z,30.15
2023-03-29T06:07:05.898Z,28.75
2023-03-29T06:09:33.078Z,30.65
2023-03-29T06:12:01.768Z,33.03
2023-03-29T06:14:29.194Z,34.58
2023-03-29T06:16:56.603Z,28.52
2023-03-29T06:19:23.599Z,32.47
2023-03-29T06:21:52.886Z,33.63
2023-03-29T06:24:20.607Z,37.65
2023-03-29T06:26:47.397Z,37.20
2023-03-29T06:29:14.702Z,28.70
2023-03-29T06:31:42.382Z,29.80
2023-03-29T06:34:09.173Z,32.10
2023-03-29T06:36:35.893Z,28.08
2023-03-29T06:39:03.920Z,30.27
2023-03-29T06:41:30.981Z,26.55
2023-03-29T06:43:58.264Z,25.27
2023-03-29T06:46:25.518Z,29.73
2023-03-29T06:48:53.338Z,25.65
2023-03-29T06:51:23.118Z,28.52
2023-03-29T06:53:50.309Z,26.00
2023-03-29T06:56:17.669Z,26.52
2023-03-29T06:58:44.989Z,28.83
2023-03-29T07:01:11.809Z,27.92
2023-03-29T07:03:39.343Z,22.88
2023-03-29T07:06:10.158Z,22.48
2023-03-29T07:08:43.494Z,25.88
2023-03-29T07:11:14.905Z,23.83
2023-03-29T07:13:42.705Z,20.20
2023-03-29T07:16:14.601Z,18.45
2023-03-29T07:18:43.004Z,22.30
2023-03-29T07:21:11.579Z,21.45
2023-03-29T07:23:39.445Z,21.35
2023-03-29T07:26:08.336Z,22.90
2023-03-29T07:28:37.422Z,23.25
2023-03-29T07:31:10.940Z,18.85
2023-03-29T07:33:38.678Z,19.60
2023-03-29T07:36:06.940Z,21.40
2023-03-29T07:38:33.789Z,23.17
2023-03-29T07:41:04.914Z,18.50
2023-03-29T07:43:31.968Z,18.80
2023-03-29T07:46:06.263Z,16.77
2023-03-29T07:48:33.788Z,17.35
2023-03-29T07:51:00.883Z,18.30
2023-03-29T07:53:29.611Z,14.32
2023-03-29T07:55:57.039Z,13.52
2023-03-29T07:58:23.743Z,13.02
2023-03-29T08:00:50.898Z,11.25
2023-03-29T08:03:17.735Z,14.25
2023-03-29T08:05:44.998Z,9.90
2023-03-29T08:08:12.525Z,11.52
2023-03-29T08:10:39.548Z,9.45
2023-03-29T08:13:09.068Z,8.70
2023-03-29T08:15:39.116Z,8.13
2023-03-29T08:18:07.477Z,8.82
2023-03-29T08:20:34.681Z,7.07
2023-03-29T08:23:01.891Z,9.10
2023-03-29T08:25:28.588Z,8.20
2023-03-29T08:27:55.331Z,10.05
2023-03-29T08:30:22.174Z,8.43
2023-03-29T08:32:51.642Z,13.43
2023-03-29T08:35:20.744Z,11.50
2023-03-29T08:37:47.578Z,11.85
2023-03-29T08:40:23.887Z,9.00
2023-03-29T08:42:58.858Z,7.45
2023-03-29T08:45:41.100Z,8.43
2023-03-29T08:48:14.117Z,12.85
2023-03-29T08:50:46.556Z,12.18
2023-03-29T08:53:34.624Z,17.33
2023-03-29T08:56:07.057Z,9.00
2023-03-29T08:58:35.224Z,12.02
2023-03-29T09:01:06.011Z,7.40
2023-03-29T09:03:40.336Z,6.75
2023-03-29T09:06:12.834Z,9.98
2023-03-29T09:08:46.413Z,10.85
2023-03-29T09:11:26.131Z,9.95
2023-03-29T09:14:57.808Z,9.43
2023-03-29T09:17:34.706Z,8.07
2023-03-29T09:20:13.998Z,10.68
2023-03-29T09:22:47.188Z,8.52
2023-03-29T09:25:50.739Z,7.78
2023-03-29T09:28:22.061Z,13.75
2023-03-29T09:31:21.707Z,3.75
2023-03-29T09:34:29.693Z,3.17
2023-03-29T09:37:12.448Z,4.75
2023-03-29T09:39:40.314Z,3.58
2023-03-29T09:42:09.525Z,5.53
2023-03-29T09:44:43.800Z,7.65
2023-03-29T09:47:25.042Z,9.98
2023-03-29T09:49:57.801Z,17.63
2023-03-29T09:52:24.584Z,16.70
2023-03-29T09:54:52.518Z,12.30
2023-03-29T09:57:20.520Z,8.95
2023-03-29T09:59:50.604Z,9.10
2023-03-29T10:02:21.232Z,5.93
2023-03-29T10:07:22.788Z,6.10
2023-03-29T10:09:52.023Z,5.40
2023-03-29T10:12:20.634Z,9.98
2023-03-29T10:14:56.374Z,8.77
2023-03-29T10:17:26.152Z,9.23
2023-03-29T10:19:57.929Z,10.80
2023-03-29T10:22:34.723Z,10.93
2023-03-29T10:25:02.453Z,5.25
2023-03-29T10:27:31.743Z,9.30
2023-03-29T10:30:01.484Z,6.45
2023-03-29T10:32:37.299Z,5.03
2023-03-29T10:35:15.134Z,8.00
2023-03-29T10:37:50.555Z,10.10
2023-03-29T10:40:28.821Z,6.53
2023-03-29T10:43:12.385Z,5.82
2023-03-29T10:45:41.050Z,10.02
2023-03-29T10:48:13.794Z,5.28
2023-03-29T10:50:41.515Z,8.75
2023-03-29T10:53:30.008Z,8.13
2023-03-29T10:56:30.494Z,5.05
2023-03-29T10:59:14.484Z,12.35
2023-03-29T11:01:48.961Z,7.32
2023-03-29T11:04:28.326Z,7.78
2023-03-29T11:06:55.045Z,8.60
2023-03-29T11:09:56.177Z,8.93
2023-03-29T11:12:24.161Z,7.32
2023-03-29T11:15:18.983Z,7.75
2023-03-29T11:18:22.985Z,9.20
2023-03-29T11:21:17.081Z,6.68
2023-03-29T11:24:03.765Z,6.38
2023-03-29T11:26:45.429Z,8.82
2023-03-29T11:29:22.925Z,7.45
2023-03-29T11:32:05.536Z,5.18
2023-03-29T11:35:12.767Z,6.45
2023-03-29T11:37:53.917Z,4.93
2023-03-29T11:40:56.556Z,4.38
2023-03-29T11:43:32.875Z,7.15
2023-03-29T11:46:32.592Z,8.15
2023-03-29T11:49:06.342Z,26.17
2023-03-29T11:52:05.023Z,10.85
2023-03-29T11:54:57.665Z,13.02
2023-03-29T11:57:41.160Z,3.45
2023-03-29T12:00:14.890Z,6.35
2023-03-29T12:02:52.968Z,3.35
2023-03-29T12:05:32.115Z,9.93
2023-03-29T12:08:06.057Z,6.65
2023-03-29T12:10:42.008Z,6.50
2023-03-29T12:13:14.647Z,5.03
2023-03-29T12:15:54.495Z,5.22
2023-03-29T12:18:38.362Z,4.65
2023-03-29T12:21:12.198Z,9.60
2023-03-29T12:23:42.380Z,5.53
2023-03-29T12:26:17.060Z,5.85
2023-03-29T12:29:05.429Z,6.57
2023-03-29T12:31:49.230Z,5.38
2023-03-29T12:34:52.431Z,6.68
2023-03-29T12:37:38.128Z,5.63
2023-03-29T12:40:15.553Z,3.90
2023-03-29T12:42:46.683Z,4.03
2023-03-29T12:45:20.119Z,5.07
2023-03-29T12:47:50.313Z,9.15
2023-03-29T12:50:32.795Z,5.78
2023-03-29T12:53:16.556Z,5.40
2023-03-29T12:55:43.576Z,5.72
2023-03-29T12:58:45.172Z,6.85
2023-03-29T13:01:33.350Z,12.00
2023-03-29T13:04:00.085Z,5.70
2023-03-29T13:06:52.942Z,5.35
2023-03-29T13:09:24.145Z,4.07
2023-03-29T13:11:58.559Z,6.28
2023-03-29T13:14:30.056Z,2.80
2023-03-29T13:17:18.459Z,7.68
2023-03-29T13:20:07.968Z,4.68
2023-03-29T13:23:05.764Z,5.32
2023-03-29T13:26:19.681Z,5.22
2023-03-29T13:28:57.248Z,3.50
2023-03-29T13:31:40.394Z,7.10
2023-03-29T13:34:33.868Z,7.50
2023-03-29T13:37:43.446Z,7.18
2023-03-29T13:40:44.299Z,12.35
2023-03-29T13:43:20.184Z,8.55
2023-03-29T13:45:58.936Z,10.70
2023-03-29T13:48:49.652Z,9.50
2023-03-29T13:51:19.200Z,9.15
2023-03-29T13:53:49.719Z,5.13
2023-03-29T13:58:49.705Z,8.40
2023-03-29T14:01:28.554Z,9.52
2023-03-29T14:03:56.762Z,11.88
2023-03-29T14:06:33.884Z,7.82
2023-03-29T14:09:09.141Z,8.60
2023-03-29T14:11:36.639Z,7.03
2023-03-29T14:14:11.177Z,9.52
2023-03-29T14:16:42.696Z,7.43
2023-03-29T14:19:21.241Z,9.00
2023-03-29T14:21:51.260Z,9.65
2023-03-29T14:24:22.559Z,8.65
2023-03-29T14:26:49.782Z,6.53
2023-03-29T14:29:18.127Z,6.40
2023-03-29T14:31:45.664Z,5.03
2023-03-29T14:34:16.048Z,7.80
2023-03-29T14:36:54.306Z,7.57
2023-03-29T14:39:23.400Z,9.88
2023-03-29T14:41:54.708Z,10.23
2023-03-29T14:44:23.749Z,8.30
2023-03-29T14:46:50.816Z,8.00
2023-03-29T14:49:20.256Z,8.88
2023-03-29T14:51:47.864Z,9.18
2023-03-29T14:54:34.388Z,11.15
2023-03-29T14:57:06.818Z,10.95
2023-03-29T14:59:41.681Z,10.50
2023-03-29T15:02:28.991Z,12.65
2023-03-29T15:05:03.473Z,14.80
2023-03-29T15:07:32.784Z,12.27
2023-03-29T15:10:01.238Z,12.60
2023-03-29T15:12:32.885Z,16.73
2023-03-29T15:15:01.090Z,17.38
2023-03-29T15:17:51.154Z,11.50
2023-03-29T15:20:24.581Z,13.70
2023-03-29T15:22:56.654Z,12.48
2023-03-29T15:25:37.676Z,14.77
2023-03-29T15:28:05.398Z,13.48
2023-03-29T15:30:38.812Z,13.27
2023-03-29T15:33:19.350Z,18.00
2023-03-29T15:35:53.136Z,15.65
2023-03-29T15:38:25.401Z,11.98
2023-03-29T15:40:54.833Z,14.95
2023-03-29T15:43:22.743Z,13.27
2023-03-29T15:45:49.995Z,22.55
2023-03-29T15:48:22.409Z,18.63
2023-03-29T15:50:50.095Z,16.02
2023-03-29T15:53:17.313Z,12.45
2023-03-29T15:55:48.481Z,14.85
2023-03-29T15:58:19.085Z,21.10
2023-03-29T16:00:51.513Z,13.25
2023-03-29T16:03:18.593Z,13.13
2023-03-29T16:05:46.377Z,12.75
2023-03-29T16:08:14.129Z,16.73
2023-03-29T16:10:43.847Z,13.98
2023-03-29T16:13:14.497Z,14.90
2023-03-29T16:18:09.470Z,14.52
2023-03-29T16:20:38.362Z,11.50
2023-03-29T16:23:09.655Z,13.40
2023-03-29T16:25:38.482Z,18.73
2023-03-29T16:28:06.836Z,23.90
2023-03-29T16:30:35.999Z,19.20
2023-03-29T16:33:06.357Z,21.02
2023-03-29T16:35:35.924Z,17.77
2023-03-29T16:38:03.357Z,15.70
2023-03-29T16:40:30.646Z,21.67
2023-03-29T16:42:57.407Z,22.98
2023-03-29T16:45:26.500Z,21.35
2023-03-29T16:47:54.563Z,18.60
2023-03-29T16:50:22.107Z,17.55
2023-03-29T16:52:51.496Z,19.02
2023-03-29T16:55:19.225Z,20.73
2023-03-29T16:57:47.364Z,20.80
2023-03-29T17:00:16.033Z,24.08
2023-03-29T17:02:49.700Z,24.35
2023-03-29T17:05:18.591Z,31.52
2023-03-29T17:07:46.166Z,32.75
2023-03-29T17:10:13.494Z,30.70
2023-03-29T17:12:40.631Z,30.88
2023-03-29T17:15:08.212Z,32.78
2023-03-29T17:17:35.616Z,29.15
2023-03-29T17:20:02.685Z,34.20
2023-03-29T17:22:29.570Z,29.60
2023-03-29T17:24:56.689Z,29.58
2023-03-29T17:27:23.499Z,30.27
2023-03-29T17:29:50.311Z,29.10
2023-03-29T17:32:17.092Z,31.75
2023-03-29T17:34:43.811Z,33.63
2023-03-29T17:37:10.680Z,25.45
2023-03-29T17:39:38.574Z,25.45
2023-03-29T17:42:06.062Z,34.80
2023-03-29T17:44:33.486Z,36.80
2023-03-29T17:47:01.225Z,35.38
2023-03-29T17:49:28.264Z,36.53
2023-03-29T17:51:56.962Z,91.63
2023-03-29T17:54:23.872Z,145.80
2023-03-29T17:56:50.974Z,197.50
2023-03-29T17:59:17.934Z,130.82
2023-03-29T18:01:44.794Z,64.30
2023-03-29T18:04:11.612Z,81.97
2023-03-29T18:06:38.524Z,111.70
2023-03-29T18:09:05.681Z,94.85
2023-03-29T18:11:32.736Z,44.83
2023-03-29T18:14:00.805Z,48.88
2023-03-29T18:16:27.587Z,27.40
2023-03-29T18:18:54.677Z,26.17
2023-03-29T18:21:22.084Z,34.50
2023-03-29T18:23:49.946Z,94.47
2023-03-29T18:26:17.711Z,61.95
2023-03-29T18:28:48.577Z,87.50
2023-03-29T18:31:16.018Z,116.63
2023-03-29T18:33:43.099Z,94.97
2023-03-29T18:36:13.117Z,121.82
2023-03-29T18:41:12.619Z,84.85
2023-03-29T18:43:45.529Z,103.72
2023-03-29T18:46:20.369Z,94.82
2023-03-29T18:48:51.519Z,65.60
2023-03-29T18:51:20.652Z,53.40
2023-03-29T18:53:50.415Z,42.13
2023-03-29T18:56:19.616Z,49.40
2023-03-29T18:58:53.578Z,100.25
2023-03-29T19:01:28.088Z,89.47
2023-03-29T19:03:56.263Z,74.25
2023-03-29T19:06:26.133Z,78.00
2023-03-29T19:08:59.017Z,51.10
2023-03-29T19:11:29.952Z,41.88
2023-03-29T19:13:56.893Z,30.05
2023-03-29T19:16:24.008Z,35.05
2023-03-29T19:18:50.931Z,41.25
2023-03-29T19:21:18.808Z,63.97
2023-03-29T19:23:46.285Z,70.20
2023-03-29T19:26:14.943Z,56.72
2023-03-29T19:28:42.046Z,57.55
2023-03-29T19:31:08.890Z,68.70
2023-03-29T19:33:35.921Z,74.85
2023-03-29T19:36:02.959Z,73.43
2023-03-29T19:38:30.207Z,83.18
2023-03-29T19:40:56.949Z,86.43
2023-03-29T19:43:26.323Z,90.70
2023-03-29T19:45:53.066Z,77.82
2023-03-29T19:48:23.950Z,89.00
2023-03-29T19:50:52.206Z,99.93
2023-03-29T19:53:19.330Z,94.75
2023-03-29T19:55:46.051Z,101.45
2023-03-29T19:58:13.316Z,86.18
2023-03-29T20:00:41.619Z,84.50
2023-03-29T20:03:09.885Z,83.18
2023-03-29T20:05:38.758Z,90.45
2023-03-29T20:08:06.515Z,83.47
2023-03-29T20:10:34.013Z,84.45
2023-03-29T20:13:01.159Z,81.07
2023-03-29T20:15:28.856Z,88.50
2023-03-29T20:17:59.293Z,85.22
2023-03-29T20:20:26.760Z,89.78
2023-03-29T20:23:05.474Z,92.32
2023-03-29T20:25:37.005Z,93.03
2023-03-29T20:28:04.900Z,87.78
2023-03-29T20:30:31.593Z,96.90
2023-03-29T20:32:58.442Z,97.07
2023-03-29T20:35:25.712Z,101.90
2023-03-29T20:37:52.845Z,87.78
2023-03-29T20:40:20.905Z,84.75
2023-03-29T20:42:49.061Z,79.75
2023-03-29T20:45:19.009Z,75.88
2023-03-29T20:47:58.011Z,81.43
2023-03-29T20:50:28.606Z,79.07
2023-03-29T20:52:56.515Z,81.82
2023-03-29T20:55:24.558Z,75.47
2023-03-29T20:57:59.014Z,72.85
2023-03-29T21:00:27.626Z,67.95
2023-03-29T21:02:57.583Z,77.45
2023-03-29T21:05:29.348Z,67.85
2023-03-29T21:08:00.891Z,72.35
2023-03-29T21:10:28.609Z,73.70
2023-03-29T21:13:02.871Z,67.03
2023-03-29T21:15:31.278Z,70.07
2023-03-29T21:17:58.361Z,67.03
2023-03-29T21:20:25.597Z,74.05
2023-03-29T21:22:52.643Z,62.67
2023-03-29T21:25:19.652Z,60.05
2023-03-29T21:27:46.586Z,55.42
2023-03-29T21:30:15.635Z,65.50
2023-03-29T21:32:42.549Z,60.78
2023-03-29T21:35:09.903Z,64.82
2023-03-29T21:37:36.824Z,69.78
2023-03-29T21:40:06.040Z,60.13
2023-03-29T21:42:36.234Z,64.38
2023-03-29T21:45:05.485Z,68.65
2023-03-29T21:47:32.341Z,66.68
2023-03-29T21:49:59.098Z,63.90
2023-03-29T21:52:26.056Z,74.80
2023-03-29T21:54:52.858Z,54.03
2023-03-29T21:57:19.720Z,51.55
2023-03-29T21:59:46.456Z,49.78
2023-03-29T22:02:13.278Z,62.15
2023-03-29T22:04:39.989Z,52.50
2023-03-29T22:07:08.410Z,60.95
2023-03-29T22:09:35.520Z,54.88
2023-03-29T22:12:04.000Z,51.95
2023-03-29T22:14:34.853Z,54.42
2023-03-29T22:17:02.953Z,54.10
2023-03-29T22:19:29.970Z,51.88
2023-03-29T22:22:01.524Z,53.97
2023-03-29T22:24:29.325Z,53.92
2023-03-29T22:26:56.401Z,52.00
2023-03-29T22:29:23.196Z,59.58
2023-03-29T22:31:49.929Z,55.95
2023-03-29T22:34:16.869Z,52.70
2023-03-29T22:36:43.727Z,53.08
2023-03-29T22:39:11.328Z,60.15
2023-03-29T22:41:38.167Z,49.75
2023-03-29T22:44:05.190Z,52.75
2023-03-29T22:46:32.277Z,53.22
2023-03-29T22:48:59.125Z,46.90
2023-03-29T22:51:26.277Z,53.13
2023-03-29T22:53:53.176Z,47.75
2023-03-29T22:56:22.918Z,46.72
2023-03-29T22:58:49.664Z,49.60
2023-03-29T23:01:17.056Z,40.60
2023-03-29T23:03:43.810Z,37.83
2023-03-29T23:06:10.566Z,43.78
2023-03-29T23:08:37.541Z,37.78
2023-03-29T23:11:05.139Z,41.03
2023-03-29T23:13:35.346Z,45.22
2023-03-29T23:16:04.953Z,39.15
2023-03-29T23:18:34.821Z,40.40
2023-03-29T23:21:05.157Z,46.50
2023-03-29T23:23:32.743Z,49.05
2023-03-29T23:25:59.634Z,54.55
2023-03-29T23:28:31.445Z,51.67
2023-03-29T23:31:02.875Z,48.60
2023-03-29T23:33:38.556Z,44.35
2023-03-29T23:36:07.626Z,44.20
2023-03-29T23:38:36.613Z,41.00
2023-03-29T23:41:06.226Z,39.00
2023-03-29T23:43:35.289Z,43.85
2023-03-29T23:46:05.215Z,41.13
2023-03-29T23:48:32.824Z,44.80
2023-03-29T23:51:00.101Z,43.28
2023-03-29T23:53:29.256Z,41.38
2023-03-29T23:56:01.998Z,46.05
2023-03-29T23:58:31.873Z,40.22
